MDW weather

Chicago Midway International Airport
Chicago, Illinois, United States

Public forecast

Using degrees Fahrenheit for public forecast. Weather courtesy of forecast.io.

METAR (pilot weather report)

Retrieved 2018/06/24 05:53 UTC (21 minutes ago):

KMDW 240553Z 27006KT 10SM BKN120 OVC200 22/18 A2982 RMK AO2 SLP088 T02170183 10244 20217 402720167 51007

TAF (pilot weather forecast)

Retrieved 2018/06/24 06:24 UTC (0 seconds ago):

TAF KMDW 240522Z 2406/2512 28006KT P6SM BKN120 FM241000 31005KT P6SM BKN120 FM241800 04010KT P6SM FEW045 SCT250 FM250100 06008KT P6SM FEW250